Time;durP1;ratioP1;P1;durP2;ratioP2;P2;SDS_P1;SDS_P2;PMS_P1;PMS_P2;Temp;Humidity;BMP_temperature;BMP_pressure;BME280_temperature;BME280_humidity;BME280_pressure;Samples;Min_cycle;Max_cycle;Signal;HPM_P1;HPM_P2
2022/12/22 03:27:12;;;;;;;0.57;0.57;;;;;;;;;;5040447;28;20263;-66
2022/12/22 03:29:38;;;;;;;0.85;0.60;;;;;;;;;;5040379;28;20391;-66
2022/12/22 03:32:06;;;;;;;0.55;0.55;;;;;;;;;;5040169;28;20212;-66
2022/12/22 03:34:32;;;;;;;0.60;0.60;;;;;;;;;;5040119;28;20421;-66
2022/12/22 03:36:58;;;;;;;0.43;0.43;;;;;;;;;;5040455;28;20198;-66
2022/12/22 03:39:25;;;;;;;0.40;0.40;;;;;;;;;;5040249;28;20202;-66
2022/12/22 03:47:20;;;;;;;0.50;0.50;;;;;;;;;;5040089;28;20270;-66
2022/12/22 03:49:47;;;;;;;3.10;0.60;;;;;;;;;;5039821;28;20213;-66
2022/12/22 03:52:13;;;;;;;0.52;0.45;;;;;;;;;;5040223;28;20197;-66
2022/12/22 03:54:39;;;;;;;0.60;0.60;;;;;;;;;;5040120;28;20202;-66
2022/12/22 03:57:05;;;;;;;1.20;0.50;;;;;;;;;;5040217;28;20202;-66
2022/12/22 03:59:32;;;;;;;1.42;0.68;;;;;;;;;;5039741;28;20198;-66
2022/12/22 04:01:58;;;;;;;0.85;0.50;;;;;;;;;;5039978;28;20201;-66
2022/12/22 04:04:26;;;;;;;0.68;0.68;;;;;;;;;;5039922;27;20539;-66
2022/12/22 04:06:53;;;;;;;0.82;0.40;;;;;;;;;;5039984;28;20222;-66
2022/12/22 04:09:21;;;;;;;1.30;0.70;;;;;;;;;;5039837;28;20201;-66
2022/12/22 04:14:31;;;;;;;1.27;0.63;;;;;;;;;;5039753;28;20234;-66
2022/12/22 04:16:57;;;;;;;0.50;0.50;;;;;;;;;;5039761;27;20208;-66
2022/12/22 04:19:24;;;;;;;0.55;0.50;;;;;;;;;;5039579;28;20397;-66
2022/12/22 04:21:52;;;;;;;0.40;0.40;;;;;;;;;;5039593;28;20205;-66
2022/12/22 04:24:18;;;;;;;0.40;0.40;;;;;;;;;;5039674;28;20206;-66
2022/12/22 04:26:44;;;;;;;2.97;2.42;;;;;;;;;;5039764;28;20464;-66
2022/12/22 04:29:10;;;;;;;2.28;2.05;;;;;;;;;;5039362;28;20237;-66
2022/12/22 04:31:37;;;;;;;1.20;0.77;;;;;;;;;;5039864;28;20198;-66
2022/12/22 04:34:03;;;;;;;0.70;0.50;;;;;;;;;;5039697;28;20206;-67
2022/12/22 04:36:29;;;;;;;1.30;0.90;;;;;;;;;;5039427;28;20194;-67
2022/12/22 04:38:57;;;;;;;1.15;1.00;;;;;;;;;;5039223;28;20221;-67
2022/12/22 04:41:23;;;;;;;0.40;0.40;;;;;;;;;;5039535;28;20201;-66
2022/12/22 04:43:49;;;;;;;0.50;0.50;;;;;;;;;;5039087;28;20197;-67
2022/12/22 04:46:15;;;;;;;0.52;0.52;;;;;;;;;;5039624;28;20214;-67
2022/12/22 04:48:42;;;;;;;2.25;0.60;;;;;;;;;;5038913;28;20212;-67
2022/12/22 04:51:08;;;;;;;0.43;0.40;;;;;;;;;;5039357;28;20265;-67
2022/12/22 04:53:34;;;;;;;0.85;0.60;;;;;;;;;;5039283;28;20198;-66
2022/12/22 04:56:03;;;;;;;1.75;0.45;;;;;;;;;;5039317;28;20528;-66
2022/12/22 04:58:29;;;;;;;0.60;0.50;;;;;;;;;;5038566;28;20198;-66
2022/12/22 05:00:56;;;;;;;2.83;0.60;;;;;;;;;;5038992;28;20208;-66
2022/12/22 05:03:22;;;;;;;0.57;0.43;;;;;;;;;;5039197;28;20198;-66
2022/12/22 05:05:48;;;;;;;1.48;0.60;;;;;;;;;;5039216;27;20214;-66
2022/12/22 05:08:15;;;;;;;0.60;0.60;;;;;;;;;;5038802;28;20219;-66
2022/12/22 05:10:41;;;;;;;1.60;0.55;;;;;;;;;;5039018;28;20202;-66
2022/12/22 05:13:09;;;;;;;2.28;0.60;;;;;;;;;;5039532;28;20213;-66
2022/12/22 05:15:35;;;;;;;1.38;0.50;;;;;;;;;;5039210;28;20374;-66
2022/12/22 05:18:01;;;;;;;1.20;0.65;;;;;;;;;;5038953;28;20232;-66
2022/12/22 05:20:28;;;;;;;3.20;1.00;;;;;;;;;;5038863;28;20383;-66
2022/12/22 05:22:55;;;;;;;1.25;0.75;;;;;;;;;;5038976;28;20202;-66
2022/12/22 05:25:21;;;;;;;2.13;1.05;;;;;;;;;;5038545;28;20205;-66
2022/12/22 05:27:48;;;;;;;1.05;0.60;;;;;;;;;;5038504;28;20427;-66
2022/12/22 05:30:17;;;;;;;5.40;0.75;;;;;;;;;;5038585;28;20202;-66
2022/12/22 05:32:43;;;;;;;5.22;1.05;;;;;;;;;;5038875;28;20198;-66
2022/12/22 05:35:10;;;;;;;1.70;0.90;;;;;;;;;;5038730;28;20202;-66
2022/12/22 05:37:36;;;;;;;2.63;0.73;;;;;;;;;;5038713;28;20204;-66
2022/12/22 05:40:02;;;;;;;0.98;0.88;;;;;;;;;;5038323;28;20210;-66
2022/12/22 05:42:38;;;;;;;3.63;1.00;;;;;;;;;;5038890;28;20204;-66
2022/12/22 05:45:05;;;;;;;3.05;1.00;;;;;;;;;;5038547;28;20198;-66
2022/12/22 05:47:33;;;;;;;2.25;1.20;;;;;;;;;;5038266;28;20225;-66
2022/12/22 05:49:59;;;;;;;1.75;0.88;;;;;;;;;;5037916;28;20208;-66
2022/12/22 05:52:26;;;;;;;1.67;1.20;;;;;;;;;;5038174;28;20198;-66
2022/12/22 05:54:52;;;;;;;4.97;1.00;;;;;;;;;;5038398;28;20201;-66
2022/12/22 05:57:18;;;;;;;3.92;0.90;;;;;;;;;;5041029;28;20201;-66
2022/12/22 05:59:45;;;;;;;2.95;1.08;;;;;;;;;;5041423;28;20235;-66
2022/12/22 06:02:11;;;;;;;4.43;0.80;;;;;;;;;;5041489;28;20221;-66
2022/12/22 06:04:39;;;;;;;4.38;0.82;;;;;;;;;;5041462;28;20205;-66
2022/12/22 06:07:05;;;;;;;2.13;1.10;;;;;;;;;;5041287;28;20221;-66
2022/12/22 06:09:32;;;;;;;5.10;1.27;;;;;;;;;;5041252;28;20398;-66
2022/12/22 06:11:58;;;;;;;3.35;1.20;;;;;;;;;;5041736;28;20613;-67
2022/12/22 06:14:24;;;;;;;6.93;1.20;;;;;;;;;;5041484;28;20408;-67
2022/12/22 06:16:50;;;;;;;3.72;1.20;;;;;;;;;;5041359;28;20198;-67
2022/12/22 06:19:17;;;;;;;4.10;1.42;;;;;;;;;;5041118;28;20311;-67
2022/12/22 06:21:44;;;;;;;7.10;1.63;;;;;;;;;;5041226;28;20228;-67
2022/12/22 06:24:10;;;;;;;5.63;1.35;;;;;;;;;;5041505;27;20194;-66
2022/12/22 06:26:37;;;;;;;5.40;1.70;;;;;;;;;;5041291;28;20402;-66
2022/12/22 06:29:03;;;;;;;6.68;2.47;;;;;;;;;;5040888;28;20541;-66
2022/12/22 06:31:29;;;;;;;6.47;2.50;;;;;;;;;;5041050;28;20220;-66
2022/12/22 06:33:55;;;;;;;5.72;1.90;;;;;;;;;;5041153;28;20202;-66
2022/12/22 06:36:22;;;;;;;2.90;1.10;;;;;;;;;;5040959;28;20206;-66
2022/12/22 06:38:49;;;;;;;3.42;1.10;;;;;;;;;;5040791;28;20210;-66
2022/12/22 06:43:07;;;;;;;2.60;1.05;;;;;;;;;;5040912;28;20551;-66
2022/12/22 06:44:01;;;;;;;5.40;1.60;;;;;;;;;;5040805;28;20226;-66
2022/12/22 06:46:28;;;;;;;2.63;1.05;;;;;;;;;;5040827;28;20224;-67
2022/12/22 06:48:54;;;;;;;3.42;1.10;;;;;;;;;;5040321;28;20198;-67
2022/12/22 06:51:20;;;;;;;3.60;1.10;;;;;;;;;;5040953;28;20201;-67
2022/12/22 06:53:46;;;;;;;9.30;1.70;;;;;;;;;;5040974;28;20198;-67
2022/12/22 06:56:14;;;;;;;6.07;1.27;;;;;;;;;;5041279;28;20193;-67
2022/12/22 06:58:40;;;;;;;6.63;1.52;;;;;;;;;;5040402;28;20198;-67
2022/12/22 07:01:07;;;;;;;5.88;1.30;;;;;;;;;;5040831;28;20497;-67
2022/12/22 07:03:33;;;;;;;4.68;1.25;;;;;;;;;;5040753;28;20469;-67
2022/12/22 07:05:59;;;;;;;3.95;1.00;;;;;;;;;;5040883;28;20212;-67
2022/12/22 07:08:25;;;;;;;7.22;1.40;;;;;;;;;;5040160;28;20204;-67
2022/12/22 07:10:57;;;;;;;6.55;1.20;;;;;;;;;;5040890;28;20509;-67
2022/12/22 07:13:26;;;;;;;6.03;1.40;;;;;;;;;;5040777;28;20466;-67
2022/12/22 07:15:52;;;;;;;5.07;1.25;;;;;;;;;;5040771;28;20205;-67
2022/12/22 07:18:19;;;;;;;5.13;1.73;;;;;;;;;;5040519;28;20198;-67
2022/12/22 07:20:45;;;;;;;4.10;1.38;;;;;;;;;;5040829;28;20273;-67
2022/12/22 07:23:11;;;;;;;5.38;1.40;;;;;;;;;;5041166;28;20205;-67
2022/12/22 07:25:37;;;;;;;5.03;1.30;;;;;;;;;;5040714;28;20202;-67
2022/12/22 07:28:05;;;;;;;7.05;1.60;;;;;;;;;;5040180;28;20450;-67
2022/12/22 07:30:34;;;;;;;4.30;1.40;;;;;;;;;;5040549;28;20202;-67
2022/12/22 07:33:00;;;;;;;1.48;1.15;;;;;;;;;;5040731;28;20204;-67
2022/12/22 07:35:26;;;;;;;7.32;1.83;;;;;;;;;;5040754;28;20205;-67
2022/12/22 07:37:53;;;;;;;6.78;1.60;;;;;;;;;;5040660;28;20194;-67
2022/12/22 07:40:19;;;;;;;4.80;1.60;;;;;;;;;;5040172;28;20205;-67
2022/12/22 07:42:44;;;;;;;3.25;1.27;;;;;;;;;;5040281;28;20218;-67
2022/12/22 07:45:11;;;;;;;20.70;12.13;;;;;;;;;;5040144;28;20257;-67
2022/12/22 07:47:39;;;;;;;8.07;2.60;;;;;;;;;;5040452;28;20226;-67
2022/12/22 07:52:50;;;;;;;10.25;5.97;;;;;;;;;;5040208;28;20193;-65
2022/12/22 07:55:16;;;;;;;7.00;3.38;;;;;;;;;;5040174;28;20217;-67
2022/12/22 07:57:42;;;;;;;9.07;1.98;;;;;;;;;;5040352;28;20200;-66
2022/12/22 08:00:09;;;;;;;6.55;1.75;;;;;;;;;;5039723;28;20198;-67
2022/12/22 08:02:35;;;;;;;8.77;2.20;;;;;;;;;;5040131;28;20205;-67
2022/12/22 08:05:04;;;;;;;5.20;1.92;;;;;;;;;;5040020;28;20205;-67
2022/12/22 08:07:31;;;;;;;7.60;1.95;;;;;;;;;;5039924;28;20334;-67
2022/12/22 08:09:57;;;;;;;9.85;2.35;;;;;;;;;;5039402;28;20205;-67
2022/12/22 08:12:24;;;;;;;9.50;2.20;;;;;;;;;;5039886;28;20389;-67
2022/12/22 08:14:50;;;;;;;6.80;1.58;;;;;;;;;;5039951;28;20206;-67
2022/12/22 08:17:16;;;;;;;9.23;2.63;;;;;;;;;;5039906;28;20198;-66
2022/12/22 08:19:43;;;;;;;6.40;1.88;;;;;;;;;;5038708;28;20202;-66
2022/12/22 08:22:11;;;;;;;11.63;1.95;;;;;;;;;;5039929;28;20204;-66
2022/12/22 08:24:37;;;;;;;8.52;2.03;;;;;;;;;;5040079;28;20198;-66
2022/12/22 08:27:06;;;;;;;9.00;1.90;;;;;;;;;;5039487;28;20217;-67
2022/12/22 08:29:34;;;;;;;7.47;1.63;;;;;;;;;;5039408;28;20198;-67
2022/12/22 08:32:00;;;;;;;10.00;1.98;;;;;;;;;;5039676;28;20200;-67
2022/12/22 08:34:27;;;;;;;10.25;2.03;;;;;;;;;;5039708;28;20302;-67
2022/12/22 08:36:55;;;;;;;7.20;2.05;;;;;;;;;;5039567;28;20198;-67
2022/12/22 08:39:23;;;;;;;5.03;1.73;;;;;;;;;;5039019;28;20297;-66
2022/12/22 08:41:50;;;;;;;8.20;2.05;;;;;;;;;;5039365;28;20205;-66
2022/12/22 08:44:17;;;;;;;6.32;1.75;;;;;;;;;;5039413;28;20368;-68
2022/12/22 08:46:43;;;;;;;8.70;2.70;;;;;;;;;;5039321;28;20204;-68
2022/12/22 08:49:09;;;;;;;10.95;2.63;;;;;;;;;;5039401;28;20204;-67
2022/12/22 08:51:35;;;;;;;7.13;2.00;;;;;;;;;;5039320;28;20198;-67
2022/12/22 08:54:02;;;;;;;5.85;1.58;;;;;;;;;;5039594;28;20206;-67
2022/12/22 08:56:29;;;;;;;7.82;1.63;;;;;;;;;;5039236;28;20197;-67
2022/12/22 08:58:56;;;;;;;5.82;1.50;;;;;;;;;;5039053;28;20198;-68
2022/12/22 09:01:22;;;;;;;7.13;1.58;;;;;;;;;;5038926;28;20204;-68
2022/12/22 09:03:49;;;;;;;8.13;1.90;;;;;;;;;;5038882;28;20233;-68
2022/12/22 09:06:16;;;;;;;8.77;1.88;;;;;;;;;;5039481;28;20198;-68
2022/12/22 09:08:42;;;;;;;6.32;1.50;;;;;;;;;;5038882;28;20225;-67
2022/12/22 09:11:08;;;;;;;5.65;1.75;;;;;;;;;;5039162;28;20220;-67
2022/12/22 09:13:36;;;;;;;7.90;2.00;;;;;;;;;;5039300;28;20376;-67
2022/12/22 09:16:04;;;;;;;6.00;1.38;;;;;;;;;;5039125;28;20205;-67
2022/12/22 09:18:30;;;;;;;6.57;1.80;;;;;;;;;;5038677;28;20497;-67
2022/12/22 09:20:56;;;;;;;6.10;1.20;;;;;;;;;;5038943;28;20403;-67
2022/12/22 09:23:23;;;;;;;3.42;1.23;;;;;;;;;;5038653;28;20261;-67
2022/12/22 09:25:49;;;;;;;4.75;1.40;;;;;;;;;;5038740;28;20509;-67
2022/12/22 09:28:15;;;;;;;5.55;1.85;;;;;;;;;;5038327;28;20229;-67
2022/12/22 09:30:43;;;;;;;6.65;1.48;;;;;;;;;;5039085;28;20204;-67
2022/12/22 09:33:09;;;;;;;5.65;1.60;;;;;;;;;;5042545;28;20212;-67
2022/12/22 09:35:35;;;;;;;5.28;1.88;;;;;;;;;;5042193;28;20212;-67
2022/12/22 09:38:01;;;;;;;5.43;1.40;;;;;;;;;;5042106;28;20207;-67
2022/12/22 09:40:28;;;;;;;10.25;2.00;;;;;;;;;;5042190;28;20493;-67
2022/12/22 09:42:54;;;;;;;6.90;1.98;;;;;;;;;;5042500;28;20220;-67
2022/12/22 09:45:20;;;;;;;7.30;1.73;;;;;;;;;;5042219;28;20198;-67
2022/12/22 09:47:52;;;;;;;6.15;1.25;;;;;;;;;;5041950;28;20206;-67
2022/12/22 09:50:22;;;;;;;10.43;1.90;;;;;;;;;;5041638;28;20204;-67
2022/12/22 09:52:49;;;;;;;7.68;1.92;;;;;;;;;;5041982;28;20205;-67
2022/12/22 09:55:26;;;;;;;8.13;1.48;;;;;;;;;;5041914;28;20206;-67
2022/12/22 09:57:53;;;;;;;8.88;1.40;;;;;;;;;;5041958;28;20219;-67
2022/12/22 10:00:21;;;;;;;6.88;1.67;;;;;;;;;;5041759;28;20250;-67
2022/12/22 10:02:55;;;;;;;7.22;1.65;;;;;;;;;;5042303;28;20202;-67
2022/12/22 10:05:27;;;;;;;7.07;1.20;;;;;;;;;;5042065;28;20201;-67
2022/12/22 10:07:58;;;;;;;6.38;1.77;;;;;;;;;;5042208;28;20463;-68
2022/12/22 10:10:27;;;;;;;8.25;1.55;;;;;;;;;;5042047;28;20208;-66
2022/12/22 10:12:54;;;;;;;5.50;1.52;;;;;;;;;;5041816;28;20197;-66
2022/12/22 10:15:20;;;;;;;5.55;1.40;;;;;;;;;;5042140;28;20220;-66
2022/12/22 10:17:49;;;;;;;10.27;1.67;;;;;;;;;;5042081;28;20392;-66
2022/12/22 10:20:25;;;;;;;5.45;1.75;;;;;;;;;;5041532;28;20399;-66
2022/12/22 10:22:52;;;;;;;6.97;1.70;;;;;;;;;;5041805;28;20197;-66
2022/12/22 10:25:32;;;;;;;7.68;1.63;;;;;;;;;;5041644;28;20198;-66
2022/12/22 10:28:00;;;;;;;5.35;1.50;;;;;;;;;;5041611;28;20235;-66
2022/12/22 10:30:28;;;;;;;6.20;1.70;;;;;;;;;;5041563;28;20198;-66
2022/12/22 10:33:05;;;;;;;7.18;1.77;;;;;;;;;;5041666;28;20557;-66
2022/12/22 10:35:46;;;;;;;8.77;2.22;;;;;;;;;;5041681;28;20535;-66
2022/12/22 10:38:14;;;;;;;8.93;1.55;;;;;;;;;;5041136;28;20202;-66
2022/12/22 10:40:42;;;;;;;6.18;1.80;;;;;;;;;;5041624;28;20205;-66
2022/12/22 10:43:08;;;;;;;8.05;1.80;;;;;;;;;;5041198;28;20227;-65
2022/12/22 10:45:35;;;;;;;4.15;1.23;;;;;;;;;;5041569;28;20204;-66
2022/12/22 10:48:01;;;;;;;12.93;4.55;;;;;;;;;;5041152;28;20256;-66
2022/12/22 10:50:27;;;;;;;5.30;1.77;;;;;;;;;;5041109;28;20198;-66
2022/12/22 10:52:56;;;;;;;6.00;1.48;;;;;;;;;;5041425;28;20202;-65
2022/12/22 10:55:24;;;;;;;6.03;1.50;;;;;;;;;;5041499;28;20202;-66
2022/12/22 10:57:51;;;;;;;6.07;1.70;;;;;;;;;;5041323;28;20239;-66
2022/12/22 11:00:27;;;;;;;9.40;1.90;;;;;;;;;;5040910;28;20202;-66
2022/12/22 11:02:54;;;;;;;5.20;1.40;;;;;;;;;;5041374;28;20396;-66
2022/12/22 11:05:20;;;;;;;6.57;1.77;;;;;;;;;;5041227;28;20205;-66
2022/12/22 11:07:47;;;;;;;7.20;1.65;;;;;;;;;;5041165;28;20271;-66
2022/12/22 11:10:19;;;;;;;5.30;1.45;;;;;;;;;;5040969;28;20194;-66
2022/12/22 11:12:53;;;;;;;6.50;1.70;;;;;;;;;;5041086;28;20270;-66
2022/12/22 11:15:26;;;;;;;5.90;1.85;;;;;;;;;;5041372;28;20206;-66
2022/12/22 11:17:56;;;;;;;7.30;1.80;;;;;;;;;;5041402;27;20494;-66
2022/12/22 11:20:29;;;;;;;4.30;1.40;;;;;;;;;;5040645;28;20601;-66
2022/12/22 11:23:00;;;;;;;7.10;2.25;;;;;;;;;;5040857;28;20227;-66
2022/12/22 11:25:31;;;;;;;10.32;2.10;;;;;;;;;;5041046;28;20389;-66
2022/12/22 11:28:07;;;;;;;7.90;1.60;;;;;;;;;;5040422;28;20226;-66
2022/12/22 11:30:36;;;;;;;7.38;1.50;;;;;;;;;;5041095;28;20203;-66
2022/12/22 11:33:09;;;;;;;4.80;1.40;;;;;;;;;;5041229;28;20198;-66
2022/12/22 11:35:41;;;;;;;3.65;1.67;;;;;;;;;;5040935;28;20198;-66
2022/12/22 11:38:13;;;;;;;5.80;1.58;;;;;;;;;;5040490;28;20200;-66
2022/12/22 11:40:42;;;;;;;7.28;2.03;;;;;;;;;;5040583;28;20206;-66
2022/12/22 11:43:17;;;;;;;6.65;1.80;;;;;;;;;;5040788;28;20205;-66
2022/12/22 11:45:51;;;;;;;4.97;2.10;;;;;;;;;;5040621;28;20197;-66
2022/12/22 11:48:35;;;;;;;29.95;8.88;;;;;;;;;;5040083;28;20233;-66
2022/12/22 11:51:07;;;;;;;9.25;3.22;;;;;;;;;;5043407;28;20201;-66
2022/12/22 11:53:48;;;;;;;17.75;5.60;;;;;;;;;;5039674;28;20206;-66
2022/12/22 11:56:21;;;;;;;6.70;2.88;;;;;;;;;;5040406;28;20197;-66
2022/12/22 11:58:55;;;;;;;7.18;1.48;;;;;;;;;;5039964;28;20194;-66
2022/12/22 12:01:31;;;;;;;5.13;2.10;;;;;;;;;;5040214;28;20356;-66
2022/12/22 12:04:18;;;;;;;4.72;1.40;;;;;;;;;;5040394;28;20201;-66
2022/12/22 12:06:55;;;;;;;5.80;1.92;;;;;;;;;;5041454;28;20197;-66
2022/12/22 12:09:29;;;;;;;5.10;1.35;;;;;;;;;;5039774;28;20221;-66
2022/12/22 12:12:01;;;;;;;4.90;1.67;;;;;;;;;;5040147;28;20530;-66
2022/12/22 12:14:31;;;;;;;5.80;1.40;;;;;;;;;;5040366;28;20202;-66
2022/12/22 12:16:59;;;;;;;4.70;1.50;;;;;;;;;;5040217;28;20198;-66
2022/12/22 12:19:35;;;;;;;4.80;1.15;;;;;;;;;;5039620;28;20447;-66
2022/12/22 12:22:03;;;;;;;6.13;1.30;;;;;;;;;;5039955;28;20205;-66
2022/12/22 12:24:37;;;;;;;4.90;1.15;;;;;;;;;;5039902;28;20205;-66
2022/12/22 12:27:08;;;;;;;2.88;1.33;;;;;;;;;;5040078;28;20308;-66
2022/12/22 12:29:37;;;;;;;3.63;1.40;;;;;;;;;;5039456;28;20451;-66
2022/12/22 12:32:06;;;;;;;4.60;1.45;;;;;;;;;;5039839;28;20263;-66
2022/12/22 12:34:33;;;;;;;4.22;1.52;;;;;;;;;;5039710;28;20208;-66
2022/12/22 12:37:02;;;;;;;3.88;1.25;;;;;;;;;;5039910;28;20205;-66
2022/12/22 12:39:32;;;;;;;4.95;1.55;;;;;;;;;;5039546;28;20266;-66
2022/12/22 12:42:02;;;;;;;2.85;1.27;;;;;;;;;;5039677;28;20201;-66
2022/12/22 12:44:32;;;;;;;4.50;1.65;;;;;;;;;;5039613;28;20209;-66
2022/12/22 12:47:06;;;;;;;4.30;1.33;;;;;;;;;;5039383;28;20206;-66
2022/12/22 12:49:51;;;;;;;1.95;1.15;;;;;;;;;;5039176;28;20226;-66
2022/12/22 12:52:17;;;;;;;1.42;0.90;;;;;;;;;;5039258;28;20205;-66
2022/12/22 12:54:45;;;;;;;4.68;1.10;;;;;;;;;;5039569;28;20208;-66
2022/12/22 12:57:28;;;;;;;2.28;1.00;;;;;;;;;;5039514;28;20272;-66
2022/12/22 12:59:56;;;;;;;9.48;2.70;;;;;;;;;;5039420;28;20224;-67
2022/12/22 13:02:33;;;;;;;2.30;1.00;;;;;;;;;;5039025;28;20198;-67
2022/12/22 13:05:01;;;;;;;1.42;0.80;;;;;;;;;;5039204;28;20260;-67
2022/12/22 13:07:45;;;;;;;5.03;1.88;;;;;;;;;;5039306;28;20202;-67
2022/12/22 13:10:18;;;;;;;5.82;2.40;;;;;;;;;;5039029;28;20205;-58
2022/12/22 13:12:49;;;;;;;1.40;0.65;;;;;;;;;;5039456;28;20206;-59
2022/12/22 13:15:28;;;;;;;2.35;0.80;;;;;;;;;;5026885;28;20233;-59
2022/12/22 13:17:55;;;;;;;2.72;1.02;;;;;;;;;;5035221;28;20242;-57
2022/12/22 13:20:24;;;;;;;7.80;3.17;;;;;;;;;;5035205;28;20222;-56
2022/12/22 13:22:51;;;;;;;23.80;7.55;;;;;;;;;;5035851;28;20213;-61
2022/12/22 13:25:18;;;;;;;2.72;0.90;;;;;;;;;;5035960;28;20205;-58
2022/12/22 13:27:44;;;;;;;2.95;0.85;;;;;;;;;;5036404;28;20278;-56
2022/12/22 13:30:12;;;;;;;4.82;1.70;;;;;;;;;;5036211;28;20229;-58
2022/12/22 13:32:41;;;;;;;2.42;1.10;;;;;;;;;;5036272;28;20232;-56
2022/12/22 13:35:13;;;;;;;2.50;0.70;;;;;;;;;;5036227;28;20212;-58
2022/12/22 13:37:41;;;;;;;2.22;0.90;;;;;;;;;;5036462;28;20213;-59
2022/12/22 13:40:09;;;;;;;1.83;0.90;;;;;;;;;;5035598;28;20209;-58
2022/12/22 13:42:37;;;;;;;3.50;0.93;;;;;;;;;;5036030;28;20206;-58
2022/12/22 13:45:05;;;;;;;3.78;2.50;;;;;;;;;;5035462;28;20213;-58
2022/12/22 13:47:31;;;;;;;1.95;1.40;;;;;;;;;;5030285;28;20212;-58
2022/12/22 13:49:59;;;;;;;2.78;1.38;;;;;;;;;;5035851;28;20234;-58
2022/12/22 13:52:25;;;;;;;1.55;1.02;;;;;;;;;;5036131;28;20209;-57
2022/12/22 13:54:53;;;;;;;2.55;1.15;;;;;;;;;;5035949;28;20210;-58
2022/12/22 13:57:20;;;;;;;2.88;1.45;;;;;;;;;;5036260;28;20210;-58
2022/12/22 13:59:48;;;;;;;6.45;2.00;;;;;;;;;;5035400;28;20202;-56
2022/12/22 14:02:16;;;;;;;7.63;2.53;;;;;;;;;;5035389;28;20536;-59
2022/12/22 14:04:43;;;;;;;3.70;1.80;;;;;;;;;;5035704;28;20210;-56
2022/12/22 14:07:11;;;;;;;3.20;1.60;;;;;;;;;;5035627;28;20206;-58
2022/12/22 14:09:42;;;;;;;6.28;1.80;;;;;;;;;;5035169;28;20221;-59
2022/12/22 14:12:13;;;;;;;6.13;1.48;;;;;;;;;;5035743;28;20210;-59
2022/12/22 14:14:40;;;;;;;5.45;1.60;;;;;;;;;;5035822;28;20206;-59
2022/12/22 14:17:15;;;;;;;3.80;1.35;;;;;;;;;;5037030;28;20212;-60
2022/12/22 14:19:41;;;;;;;8.20;1.83;;;;;;;;;;5039037;28;20531;-58
2022/12/22 14:22:11;;;;;;;4.75;1.30;;;;;;;;;;5039099;28;20258;-58
2022/12/22 14:24:41;;;;;;;6.15;1.55;;;;;;;;;;5039148;27;20206;-57
2022/12/22 14:27:14;;;;;;;4.43;2.47;;;;;;;;;;5038900;28;20206;-59
2022/12/22 14:29:41;;;;;;;4.13;1.50;;;;;;;;;;5038985;28;20230;-59
2022/12/22 14:32:08;;;;;;;4.03;1.40;;;;;;;;;;5038963;28;20206;-59
2022/12/22 14:34:35;;;;;;;3.85;1.50;;;;;;;;;;5038806;28;20572;-59
2022/12/22 14:37:01;;;;;;;4.70;1.33;;;;;;;;;;5038895;28;20210;-59
2022/12/22 14:39:29;;;;;;;3.83;2.10;;;;;;;;;;5038481;28;20240;-59
2022/12/22 14:41:58;;;;;;;8.55;1.58;;;;;;;;;;5038546;28;20406;-59
2022/12/22 14:44:26;;;;;;;5.32;1.75;;;;;;;;;;5038751;28;20212;-58
2022/12/22 14:47:06;;;;;;;10.43;1.55;;;;;;;;;;5038811;27;20440;-60
2022/12/22 14:49:33;;;;;;;4.82;1.48;;;;;;;;;;5038190;28;20226;-58
2022/12/22 14:52:03;;;;;;;3.42;1.60;;;;;;;;;;5038858;28;20210;-58
2022/12/22 14:54:29;;;;;;;4.75;1.58;;;;;;;;;;5038508;28;20213;-58
2022/12/22 14:57:00;;;;;;;5.85;1.58;;;;;;;;;;5038308;28;20206;-58
2022/12/22 14:59:27;;;;;;;6.35;2.05;;;;;;;;;;5039352;28;20193;-60
2022/12/22 15:02:01;;;;;;;6.95;1.85;;;;;;;;;;5041338;27;20213;-60
2022/12/22 15:04:27;;;;;;;7.70;1.98;;;;;;;;;;5040848;28;20202;-60
2022/12/22 15:07:03;;;;;;;7.85;2.00;;;;;;;;;;5040498;28;20205;-60
2022/12/22 15:09:30;;;;;;;5.35;1.58;;;;;;;;;;5040392;28;20229;-60
2022/12/22 15:12:03;;;;;;;4.43;1.83;;;;;;;;;;5041139;28;20202;-60
2022/12/22 15:14:31;;;;;;;6.18;1.92;;;;;;;;;;5041212;28;20201;-60
2022/12/22 15:16:58;;;;;;;9.77;3.63;;;;;;;;;;5040943;28;20513;-59
2022/12/22 15:19:28;;;;;;;5.35;2.05;;;;;;;;;;5040567;27;20493;-60
2022/12/22 15:21:54;;;;;;;7.78;2.67;;;;;;;;;;5040889;28;20206;-60
2022/12/22 15:24:20;;;;;;;7.43;1.98;;;;;;;;;;5041072;28;20221;-60
2022/12/22 15:26:47;;;;;;;7.30;2.25;;;;;;;;;;5041047;27;20221;-60
2022/12/22 15:29:14;;;;;;;8.85;2.08;;;;;;;;;;5038985;28;20454;-58
2022/12/22 15:31:42;;;;;;;8.13;2.00;;;;;;;;;;5040526;28;20198;-58
2022/12/22 15:34:11;;;;;;;7.60;1.52;;;;;;;;;;5040792;28;20397;-59
2022/12/22 15:36:37;;;;;;;4.22;1.95;;;;;;;;;;5040579;28;20198;-60
2022/12/22 15:39:03;;;;;;;6.95;2.13;;;;;;;;;;5040476;28;20559;-60
2022/12/22 15:41:30;;;;;;;3.47;1.88;;;;;;;;;;5040865;28;20389;-60
2022/12/22 15:43:56;;;;;;;4.60;2.20;;;;;;;;;;5040605;28;20415;-60
2022/12/22 15:46:24;;;;;;;6.60;2.20;;;;;;;;;;5040521;28;20198;-60
2022/12/22 15:48:50;;;;;;;8.18;2.22;;;;;;;;;;5039911;28;20198;-67
2022/12/22 15:51:20;;;;;;;11.40;2.47;;;;;;;;;;5040622;28;20204;-66
2022/12/22 15:53:46;;;;;;;7.40;1.90;;;;;;;;;;5040520;28;20197;-66
2022/12/22 15:56:15;;;;;;;7.60;1.70;;;;;;;;;;5040506;28;20197;-66
2022/12/22 15:58:42;;;;;;;8.05;2.30;;;;;;;;;;5039952;28;20577;-66
2022/12/22 16:01:09;;;;;;;9.15;2.17;;;;;;;;;;5040249;28;20366;-66
2022/12/22 16:03:36;;;;;;;9.98;3.10;;;;;;;;;;5040131;28;20281;-66
2022/12/22 16:06:03;;;;;;;5.93;2.20;;;;;;;;;;5040245;28;20209;-66
2022/12/22 16:08:31;;;;;;;4.80;1.90;;;;;;;;;;5039714;28;20544;-66
2022/12/22 16:10:57;;;;;;;12.98;2.95;;;;;;;;;;5040568;28;20261;-66
2022/12/22 16:13:25;;;;;;;11.07;3.00;;;;;;;;;;5040111;28;20198;-66
2022/12/22 16:15:51;;;;;;;7.28;2.15;;;;;;;;;;5040158;28;20204;-66
2022/12/22 16:18:18;;;;;;;7.00;2.38;;;;;;;;;;5039777;28;20202;-66
2022/12/22 16:20:48;;;;;;;7.05;2.22;;;;;;;;;;5039980;28;20280;-66
2022/12/22 16:23:16;;;;;;;9.57;3.08;;;;;;;;;;5039949;28;20197;-66
2022/12/22 16:25:44;;;;;;;9.40;2.30;;;;;;;;;;5039882;28;20517;-66
2022/12/22 16:28:13;;;;;;;9.32;2.55;;;;;;;;;;5039373;28;20218;-66
2022/12/22 16:30:40;;;;;;;6.55;1.95;;;;;;;;;;5039776;28;20229;-67
2022/12/22 16:33:06;;;;;;;4.18;1.63;;;;;;;;;;5039900;28;20400;-67
2022/12/22 16:35:32;;;;;;;6.13;2.47;;;;;;;;;;5039957;28;20225;-68
2022/12/22 16:38:00;;;;;;;7.72;2.42;;;;;;;;;;5039562;28;20197;-68
2022/12/22 16:40:27;;;;;;;9.27;2.75;;;;;;;;;;5039394;27;20481;-68
2022/12/22 16:42:58;;;;;;;11.95;3.17;;;;;;;;;;5040011;28;20202;-69
2022/12/22 16:45:27;;;;;;;9.63;2.83;;;;;;;;;;5039800;28;20416;-68
2022/12/22 16:47:54;;;;;;;16.83;3.15;;;;;;;;;;5039639;28;20517;-68
2022/12/22 16:50:22;;;;;;;9.18;2.58;;;;;;;;;;5039538;28;20221;-68
2022/12/22 16:52:49;;;;;;;10.02;2.72;;;;;;;;;;5039509;28;20205;-68
2022/12/22 16:55:18;;;;;;;9.43;2.92;;;;;;;;;;5040025;28;20205;-68
2022/12/22 16:57:44;;;;;;;10.88;3.10;;;;;;;;;;5039630;28;20225;-68
2022/12/22 17:00:13;;;;;;;17.33;2.97;;;;;;;;;;5039328;28;20194;-68
2022/12/22 17:02:40;;;;;;;10.48;2.95;;;;;;;;;;5039308;28;20409;-68
2022/12/22 17:05:09;;;;;;;16.00;2.85;;;;;;;;;;5039237;28;20242;-68
2022/12/22 17:07:36;;;;;;;12.15;3.20;;;;;;;;;;5039236;28;20398;-68
2022/12/22 17:10:02;;;;;;;13.05;2.70;;;;;;;;;;5039151;28;20242;-68
2022/12/22 17:12:31;;;;;;;15.77;2.92;;;;;;;;;;5039174;28;20524;-68
2022/12/22 17:14:59;;;;;;;13.57;3.40;;;;;;;;;;5039338;28;20396;-68
2022/12/22 17:17:25;;;;;;;17.00;3.13;;;;;;;;;;5039272;28;20270;-68
2022/12/22 17:19:52;;;;;;;16.30;3.50;;;;;;;;;;5038682;28;20521;-68
2022/12/22 17:22:20;;;;;;;15.90;3.35;;;;;;;;;;5039137;28;20234;-68
2022/12/22 17:24:47;;;;;;;17.55;3.47;;;;;;;;;;5039294;28;20242;-68
2022/12/22 17:27:14;;;;;;;11.50;3.15;;;;;;;;;;5038973;28;20208;-68
2022/12/22 17:29:41;;;;;;;14.88;3.10;;;;;;;;;;5038792;28;20220;-68
2022/12/22 17:32:09;;;;;;;12.10;3.22;;;;;;;;;;5039236;28;20197;-68
2022/12/22 17:34:36;;;;;;;16.55;3.80;;;;;;;;;;5038771;28;20204;-68
2022/12/22 17:37:02;;;;;;;8.60;2.83;;;;;;;;;;5038982;28;20212;-68
2022/12/22 17:39:28;;;;;;;18.30;3.45;;;;;;;;;;5038840;28;20501;-68
2022/12/22 17:41:54;;;;;;;18.60;3.55;;;;;;;;;;5038839;28;20197;-68
2022/12/22 17:44:22;;;;;;;12.25;3.28;;;;;;;;;;5039013;28;20202;-68
2022/12/22 17:46:49;;;;;;;19.48;4.38;;;;;;;;;;5038906;28;20510;-68
2022/12/22 17:49:18;;;;;;;12.60;3.05;;;;;;;;;;5038363;28;20220;-68
2022/12/22 17:51:45;;;;;;;16.83;3.35;;;;;;;;;;5039365;28;20524;-68
2022/12/22 17:54:15;;;;;;;15.30;3.63;;;;;;;;;;5042524;28;20198;-68
2022/12/22 17:56:41;;;;;;;15.77;3.50;;;;;;;;;;5042454;28;20213;-68
2022/12/22 17:59:10;;;;;;;9.45;2.58;;;;;;;;;;5041806;28;20190;-68
2022/12/22 18:01:38;;;;;;;18.83;3.13;;;;;;;;;;5042248;28;20201;-68
2022/12/22 18:04:08;;;;;;;17.48;3.65;;;;;;;;;;5042691;28;20232;-68
2022/12/22 18:06:35;;;;;;;12.18;3.47;;;;;;;;;;5042469;27;20194;-68
2022/12/22 18:09:02;;;;;;;12.75;2.83;;;;;;;;;;5041713;28;20201;-68
2022/12/22 18:11:28;;;;;;;11.80;3.30;;;;;;;;;;5042024;28;20221;-68
2022/12/22 18:13:56;;;;;;;11.90;3.28;;;;;;;;;;5041961;28;20474;-68
2022/12/22 18:16:22;;;;;;;9.38;2.83;;;;;;;;;;5041796;28;20198;-68
2022/12/22 18:18:48;;;;;;;12.13;3.28;;;;;;;;;;5041821;28;20303;-68
2022/12/22 18:21:17;;;;;;;15.18;3.45;;;;;;;;;;5041713;28;20206;-68
2022/12/22 18:23:44;;;;;;;13.32;4.07;;;;;;;;;;5042001;28;20205;-68